Time;durP1;ratioP1;P1;durP2;ratioP2;P2;SDS_P1;SDS_P2;PMS_P1;PMS_P2;Temp;Humidity;BMP_temperature;BMP_pressure;BME280_temperature;BME280_humidity;BME280_pressure;Samples;Min_cycle;Max_cycle;Signal;HPM_P1;HPM_P2
2022/01/01 00:02:22;;;;;;;;;54.25;45.00;;;;;-147.17;100.00;49450.41;4917467;28;51215;-60
2022/01/01 00:04:48;;;;;;;;;53.25;44.25;;;;;-147.17;100.00;49479.91;4908384;28;51086;-60
2022/01/01 00:07:14;;;;;;;;;56.75;46.50;;;;;-147.17;100.00;49430.72;4898157;28;51117;-60
2022/01/01 00:09:41;;;;;;;;;58.00;45.75;;;;;-147.17;100.00;49464.16;4898628;29;50941;-59
2022/01/01 00:12:07;;;;;;;;;58.75;48.00;;;;;-147.17;100.00;49418.91;4902525;28;51240;-59
2022/01/01 00:14:33;;;;;;;;;55.00;46.00;;;;;-147.17;100.00;49413.00;4913654;28;52039;-59
2022/01/01 00:16:59;;;;;;;;;61.00;49.25;;;;;-147.17;100.00;49442.53;4899790;28;51384;-58
2022/01/01 00:19:24;;;;;;;;;57.75;46.50;;;;;-147.17;100.00;49420.88;4905192;28;51823;-59
2022/01/01 00:21:49;;;;;;;;;55.50;46.00;;;;;-147.17;100.00;49442.53;4906875;28;51976;-59
2022/01/01 00:24:15;;;;;;;;;57.00;46.25;;;;;-147.17;100.00;49444.50;4905646;28;51306;-59
2022/01/01 00:26:41;;;;;;;;;60.00;48.00;;;;;-147.17;100.00;49411.03;4905243;28;51106;-59
2022/01/01 00:29:07;;;;;;;;;58.00;47.25;;;;;-147.17;100.00;49436.63;4906687;28;51178;-58
2022/01/01 00:31:32;;;;;;;;;53.50;44.00;;;;;-147.17;100.00;49430.72;4923789;28;51119;-59
2022/01/01 00:33:59;;;;;;;;;55.75;45.75;;;;;-147.17;100.00;49428.75;4889762;28;51544;-59
2022/01/01 00:36:25;;;;;;;;;53.75;45.00;;;;;-147.17;100.00;49428.75;4900788;28;51361;-58
2022/01/01 00:38:51;;;;;;;;;56.00;46.50;;;;;-147.17;100.00;49442.53;4905771;28;51212;-58
2022/01/01 00:41:16;;;;;;;;;52.25;43.50;;;;;-147.17;100.00;49440.56;4908076;28;51269;-59
2022/01/01 00:43:41;;;;;;;;;54.50;45.00;;;;;-147.17;100.00;49430.72;4901840;28;51969;-58
2022/01/01 00:46:07;;;;;;;;;55.50;43.50;;;;;-147.17;100.00;49448.44;4923435;28;51249;-59
2022/01/01 00:48:32;;;;;;;;;57.50;46.50;;;;;-147.17;100.00;49426.78;4897410;28;52719;-59
2022/01/01 00:50:58;;;;;;;;;55.50;44.00;;;;;-147.17;100.00;49432.69;4904595;28;51203;-59
2022/01/01 00:53:23;;;;;;;;;59.00;47.00;;;;;-147.17;100.00;49434.66;4905830;28;51976;-60
2022/01/01 00:55:49;;;;;;;;;38.25;32.75;;;;;-147.17;100.00;49446.47;4906266;28;51123;-59
2022/01/01 00:58:14;;;;;;;;;56.50;45.00;;;;;-147.17;100.00;49470.06;4901141;28;51338;-59
2022/01/01 01:00:40;;;;;;;;;53.75;44.50;;;;;-147.17;100.00;49458.25;4905322;28;51173;-59
2022/01/01 01:03:10;;;;;;;;;53.25;45.00;;;;;-147.17;100.00;49470.06;4906533;28;51151;-59
2022/01/01 01:05:38;;;;;;;;;50.75;43.75;;;;;-147.17;100.00;49466.13;4906126;28;50847;-59
2022/01/01 01:08:06;;;;;;;;;47.75;39.00;;;;;-147.17;100.00;49485.81;4903523;28;51123;-58
2022/01/01 01:10:31;;;;;;;;;53.25;44.00;;;;;-147.17;100.00;49481.88;4907172;28;51208;-58
2022/01/01 01:12:57;;;;;;;;;47.75;40.00;;;;;-147.17;100.00;49501.56;4907902;28;52297;-59
2022/01/01 01:15:24;;;;;;;;;51.00;40.75;;;;;-147.17;100.00;49487.78;4904455;28;50996;-59
2022/01/01 01:17:51;;;;;;;;;49.50;41.25;;;;;-147.17;100.00;49483.84;4906051;28;51026;-60
2022/01/01 01:20:18;;;;;;;;;48.25;40.25;;;;;-147.17;100.00;49493.69;4903225;28;51031;-63
2022/01/01 01:22:44;;;;;;;;;48.75;41.75;;;;;-147.17;100.00;49477.94;4906917;28;51758;-59
2022/01/01 01:25:10;;;;;;;;;53.75;42.00;;;;;-147.17;100.00;49477.94;4902173;28;51164;-59
2022/01/01 01:27:37;;;;;;;;;48.25;39.50;;;;;-147.17;100.00;49470.06;4905967;28;51067;-59
2022/01/01 01:30:09;;;;;;;;;44.00;38.00;;;;;-147.17;100.00;49454.31;4906322;28;51317;-59
2022/01/01 01:32:35;;;;;;;;;49.25;40.50;;;;;-147.17;100.00;49474.00;4904605;28;52053;-59
2022/01/01 01:35:02;;;;;;;;;49.00;41.75;;;;;-147.17;100.00;49434.66;4908708;28;51226;-59
2022/01/01 01:37:28;;;;;;;;;47.00;39.75;;;;;-147.17;100.00;49485.81;4903126;28;51074;-60
2022/01/01 01:39:56;;;;;;;;;45.50;37.75;;;;;-147.17;100.00;49466.13;4903300;28;51259;-59
2022/01/01 01:42:22;;;;;;;;;46.75;39.25;;;;;-147.17;100.00;49446.47;4900807;28;52272;-59
2022/01/01 01:44:51;;;;;;;;;43.50;38.75;;;;;-147.17;100.00;49485.81;4901435;28;51166;-59
2022/01/01 01:47:26;;;;;;;;;43.00;37.00;;;;;-147.17;100.00;49466.13;4901042;28;51203;-59
2022/01/01 01:49:52;;;;;;;;;42.75;36.25;;;;;-147.17;100.00;49474.00;4907038;28;51166;-58
2022/01/01 01:52:19;;;;;;;;;47.50;40.25;;;;;-147.17;100.00;49466.13;4901768;28;52242;-58
2022/01/01 01:54:45;;;;;;;;;42.00;38.25;;;;;-147.17;100.00;49499.59;4906948;28;50997;-58
2022/01/01 01:57:11;;;;;;;;;48.00;40.50;;;;;-147.17;100.00;49485.81;4907738;28;51205;-58
2022/01/01 01:59:36;;;;;;;;;49.25;40.25;;;;;-147.17;100.00;49446.47;4905510;28;50998;-58
2022/01/01 02:02:02;;;;;;;;;46.50;38.75;;;;;-147.17;100.00;49452.34;4907103;28;52179;-58
2022/01/01 02:04:27;;;;;;;;;48.75;39.50;;;;;-147.17;100.00;49474.00;4889823;28;51201;-60
2022/01/01 02:06:53;;;;;;;;;50.25;42.50;;;;;-147.17;100.00;49468.09;4906419;28;51846;-58
2022/01/01 02:09:18;;;;;;;;;51.50;42.75;;;;;-147.17;100.00;49470.06;4907425;28;52223;-58
2022/01/01 02:11:44;;;;;;;;;55.50;44.00;;;;;-147.17;100.00;49464.16;4903435;28;51625;-58
2022/01/01 02:14:16;;;;;;;;;52.75;43.50;;;;;-147.17;100.00;49466.13;4903171;28;51201;-59
2022/01/01 02:19:23;;;;;;;;;52.75;44.50;;;;;-147.17;100.00;49474.00;4907927;28;51083;-59
2022/01/01 02:21:51;;;;;;;;;56.00;45.75;;;;;-147.17;100.00;49470.06;4906484;28;51967;-58
2022/01/01 02:24:16;;;;;;;;;54.75;45.00;;;;;-147.17;100.00;49491.72;4903985;28;51169;-59
2022/01/01 02:26:42;;;;;;;;;53.25;44.00;;;;;-147.17;100.00;49525.19;4902868;28;51082;-58
2022/01/01 02:29:07;;;;;;;;;52.75;44.00;;;;;-147.17;100.00;49481.88;4903014;28;51094;-58
2022/01/01 02:31:33;;;;;;;;;53.25;43.50;;;;;-147.17;100.00;49509.44;4905611;28;52241;-58
2022/01/01 02:34:07;;;;;;;;;51.00;42.75;;;;;-147.17;100.00;49521.25;4904707;28;51108;-59
2022/01/01 02:36:36;;;;;;;;;51.25;42.75;;;;;-147.17;100.00;49511.41;4899574;28;51126;-59
2022/01/01 02:39:10;;;;;;;;;50.25;41.50;;;;;-147.17;100.00;49497.63;4904932;28;50859;-59
2022/01/01 02:41:35;;;;;;;;;53.25;43.75;;;;;-147.17;100.00;49529.13;4899702;28;52669;-58
2022/01/01 02:44:01;;;;;;;;;52.00;43.00;;;;;-147.17;100.00;49485.81;4905250;28;51170;-58
2022/01/01 02:46:26;;;;;;;;;50.50;42.75;;;;;-147.17;100.00;49521.25;4908642;28;51138;-58
2022/01/01 02:48:52;;;;;;;;;53.00;43.00;;;;;-147.17;100.00;49535.03;4918236;28;51178;-58
2022/01/01 02:51:17;;;;;;;;;52.50;42.50;;;;;-147.17;100.00;49517.31;4896445;28;51176;-58
2022/01/01 02:53:43;;;;;;;;;46.50;40.00;;;;;-147.17;100.00;49554.69;4903806;28;50987;-58
2022/01/01 02:56:08;;;;;;;;;55.75;45.00;;;;;-147.17;100.00;49497.63;4914002;28;51369;-59
2022/01/01 02:58:33;;;;;;;;;53.75;45.50;;;;;-147.17;100.00;49507.47;4907497;28;51331;-59
2022/01/01 03:00:59;;;;;;;;;48.75;41.50;;;;;-147.17;100.00;49515.34;4910335;28;52421;-58
2022/01/01 03:03:24;;;;;;;;;47.25;39.50;;;;;-147.17;100.00;49523.22;4908338;28;51004;-58
2022/01/01 03:05:49;;;;;;;;;50.50;42.25;;;;;-147.17;100.00;49542.91;4910669;28;51957;-59
2022/01/01 03:08:15;;;;;;;;;56.75;46.25;;;;;-147.17;100.00;49517.31;4903572;28;51352;-58
2022/01/01 03:10:40;;;;;;;;;50.75;42.50;;;;;-147.17;100.00;49540.94;4917554;28;52156;-58
2022/01/01 03:13:05;;;;;;;;;54.25;46.00;;;;;-147.17;100.00;49519.28;4910735;28;52738;-59
2022/01/01 03:15:31;;;;;;;;;55.25;44.50;;;;;-147.17;100.00;49507.47;4918238;28;51379;-59
2022/01/01 03:17:56;;;;;;;;;53.25;43.50;;;;;-147.17;100.00;49521.25;4904421;28;51375;-59
2022/01/01 03:20:22;;;;;;;;;58.00;47.25;;;;;-147.17;100.00;49493.69;4911734;28;51817;-60
2022/01/01 03:22:47;;;;;;;;;55.25;45.75;;;;;-147.17;100.00;49491.72;4908513;28;51142;-59
2022/01/01 03:25:13;;;;;;;;;49.50;41.50;;;;;-147.17;100.00;49529.13;4914874;28;51065;-59
2022/01/01 03:27:38;;;;;;;;;50.25;42.00;;;;;-147.17;100.00;49515.34;4922180;28;51442;-59
2022/01/01 03:30:04;;;;;;;;;45.25;39.75;;;;;-147.17;100.00;49519.28;4922353;28;51151;-59
2022/01/01 03:32:30;;;;;;;;;37.75;34.25;;;;;-147.17;100.00;49513.38;4901631;28;51129;-59
2022/01/01 03:34:56;;;;;;;;;48.25;39.75;;;;;-147.17;100.00;49505.50;4889088;28;51066;-59
2022/01/01 03:37:21;;;;;;;;;46.50;39.00;;;;;-147.17;100.00;49505.50;4916264;28;51342;-59
2022/01/01 03:39:47;;;;;;;;;39.75;35.25;;;;;-147.17;100.00;49497.63;4905097;28;51190;-59
2022/01/01 03:42:12;;;;;;;;;34.75;33.25;;;;;-147.17;100.00;49542.91;4903642;28;51118;-60
2022/01/01 03:44:37;;;;;;;;;38.00;34.00;;;;;-147.17;100.00;49521.25;4917708;28;50913;-59
2022/01/01 03:47:09;;;;;;;;;34.25;32.75;;;;;-147.17;100.00;49533.06;4917266;28;51185;-59
2022/01/01 03:49:36;;;;;;;;;37.25;33.25;;;;;-147.17;100.00;49525.19;4908703;28;53068;-59
2022/01/01 03:52:02;;;;;;;;;41.00;36.00;;;;;-147.17;100.00;49529.13;4905037;28;51080;-59
2022/01/01 03:54:27;;;;;;;;;37.50;34.75;;;;;-147.17;100.00;49544.88;4915603;28;51160;-58
2022/01/01 03:56:52;;;;;;;;;34.00;30.75;;;;;-147.17;100.00;49558.63;4915476;28;51409;-58
2022/01/01 03:59:19;;;;;;;;;38.75;34.75;;;;;-147.17;100.00;49507.47;4916428;28;51152;-59
2022/01/01 04:01:44;;;;;;;;;29.75;28.75;;;;;-147.17;100.00;49535.03;4911029;28;51183;-58
2022/01/01 04:04:10;;;;;;;;;34.50;32.50;;;;;-147.17;100.00;49521.25;4898390;28;51570;-58
2022/01/01 04:06:35;;;;;;;;;39.25;33.75;;;;;-147.17;100.00;49505.50;4898596;28;50886;-58
2022/01/01 04:09:00;;;;;;;;;41.00;34.00;;;;;-147.17;100.00;49521.25;4911268;28;51761;-58
2022/01/01 04:11:26;;;;;;;;;35.25;32.75;;;;;-147.17;100.00;49517.31;4915427;28;51203;-58
2022/01/01 04:13:51;;;;;;;;;36.75;32.00;;;;;-147.17;100.00;49537.00;4912731;28;51246;-59
2022/01/01 04:16:18;;;;;;;;;35.25;33.00;;;;;-147.17;100.00;49564.53;4897960;28;51418;-58
2022/01/01 04:18:45;;;;;;;;;34.75;31.75;;;;;-147.17;100.00;49550.75;4899836;28;52700;-58
2022/01/01 04:21:12;;;;;;;;;29.50;28.75;;;;;-147.17;100.00;49552.72;4897675;28;51077;-58
2022/01/01 04:23:43;;;;;;;;;30.00;29.00;;;;;-147.17;100.00;49572.41;4903753;28;51121;-58
2022/01/01 04:26:09;;;;;;;;;30.75;30.00;;;;;-147.17;100.00;49560.59;4917565;28;51187;-58
2022/01/01 04:28:36;;;;;;;;;30.00;27.00;;;;;-147.17;100.00;49523.22;4911376;28;51829;-58
2022/01/01 04:31:02;;;;;;;;;29.00;28.00;;;;;-147.17;100.00;49572.41;4907001;28;51164;-58
2022/01/01 04:33:27;;;;;;;;;25.00;25.00;;;;;-147.17;100.00;49558.63;4902944;28;51207;-58
2022/01/01 04:35:52;;;;;;;;;33.75;33.00;;;;;-147.17;100.00;49556.66;4915372;28;51235;-58
2022/01/01 04:38:40;;;;;;;;;30.00;28.00;;;;;-147.17;100.00;49558.63;4908897;28;50893;-59
2022/01/01 04:41:09;;;;;;;;;33.25;32.25;;;;;-147.17;100.00;49572.41;4916927;28;51017;-58
2022/01/01 04:43:35;;;;;;;;;35.75;33.00;;;;;-147.17;100.00;49564.53;4898764;28;51025;-58
2022/01/01 04:46:00;;;;;;;;;40.25;36.00;;;;;-147.17;100.00;49568.47;4904467;28;51369;-59
2022/01/01 04:48:26;;;;;;;;;45.50;38.75;;;;;-147.17;100.00;49582.25;4898874;28;51866;-58
2022/01/01 04:50:51;;;;;;;;;37.00;33.25;;;;;-147.17;100.00;49584.22;4899962;28;51080;-58
2022/01/01 04:53:18;;;;;;;;;43.75;36.50;;;;;-147.17;100.00;49598.00;4911856;28;51216;-58
2022/01/01 04:55:47;;;;;;;;;44.25;37.75;;;;;-147.17;100.00;49607.84;4896980;28;51286;-59
2022/01/01 04:58:14;;;;;;;;;39.50;36.25;;;;;-147.17;100.00;49580.28;4906553;28;51072;-59
2022/01/01 05:00:40;;;;;;;;;43.75;37.25;;;;;-147.17;100.00;49576.34;4902512;28;50986;-59
2022/01/01 05:03:05;;;;;;;;;34.25;31.50;;;;;-147.17;100.00;49599.97;4909362;28;51084;-59
2022/01/01 05:05:31;;;;;;;;;36.75;33.25;;;;;-147.17;100.00;49609.81;4908809;28;51161;-59
2022/01/01 05:07:56;;;;;;;;;30.75;29.25;;;;;-147.17;100.00;49601.94;4910514;28;52079;-59
2022/01/01 05:10:21;;;;;;;;;31.25;30.50;;;;;-147.17;100.00;49572.41;4912677;28;51142;-59
2022/01/01 05:12:47;;;;;;;;;32.25;30.75;;;;;-147.17;100.00;49588.16;4913651;28;50898;-59
2022/01/01 05:15:12;;;;;;;;;29.50;28.00;;;;;-147.17;100.00;49552.72;4916003;28;51186;-58
2022/01/01 05:17:38;;;;;;;;;33.25;30.25;;;;;-147.17;100.00;49611.78;4914682;28;51574;-59
2022/01/01 05:20:04;;;;;;;;;25.75;25.50;;;;;-147.17;100.00;49627.53;4914985;28;50917;-59
2022/01/01 05:22:29;;;;;;;;;22.25;21.75;;;;;-147.17;100.00;49621.63;4907135;28;51282;-59
2022/01/01 05:24:59;;;;;;;;;26.50;25.00;;;;;-147.17;100.00;49586.19;4915756;28;51350;-58
2022/01/01 05:27:26;;;;;;;;;24.75;22.25;;;;;-147.17;100.00;49619.66;4908450;28;51869;-59
2022/01/01 05:29:52;;;;;;;;;34.75;28.75;;;;;-147.17;100.00;49596.03;4905352;28;51110;-59
2022/01/01 05:32:17;;;;;;;;;33.00;31.50;;;;;-147.17;100.00;49629.50;4902745;28;50919;-58
2022/01/01 05:34:43;;;;;;;;;29.00;26.75;;;;;-147.17;100.00;49605.88;4897553;28;51359;-59
2022/01/01 05:37:08;;;;;;;;;25.50;25.00;;;;;-147.17;100.00;49576.34;4905790;28;50932;-59
2022/01/01 05:39:33;;;;;;;;;32.50;30.50;;;;;-147.17;100.00;49598.00;4909670;28;51040;-59
2022/01/01 05:41:59;;;;;;;;;28.25;26.00;;;;;-147.17;100.00;49643.28;4902766;28;51688;-58
2022/01/01 05:44:24;;;;;;;;;28.75;27.00;;;;;-147.17;100.00;49635.41;4913015;28;51659;-59
2022/01/01 05:46:50;;;;;;;;;33.50;30.00;;;;;-147.17;100.00;49607.84;4908481;28;51575;-60
2022/01/01 05:49:16;;;;;;;;;29.00;27.25;;;;;-147.17;100.00;49643.28;4914452;28;51191;-59
2022/01/01 05:51:41;;;;;;;;;26.75;25.25;;;;;-147.17;100.00;49639.34;4899630;28;51110;-59
2022/01/01 05:54:07;;;;;;;;;32.75;32.00;;;;;-147.17;100.00;49633.44;4895235;28;51113;-59
2022/01/01 05:56:32;;;;;;;;;30.25;29.75;;;;;-147.17;100.00;49623.59;4900440;28;51416;-58
2022/01/01 05:58:57;;;;;;;;;33.75;32.50;;;;;-147.17;100.00;49631.47;4908187;28;51068;-59
2022/01/01 06:01:23;;;;;;;;;33.00;32.00;;;;;-147.17;100.00;49657.06;4914803;28;51151;-59
2022/01/01 06:03:48;;;;;;;;;36.25;32.75;;;;;-147.17;100.00;49660.97;4906646;28;51132;-59
2022/01/01 06:06:13;;;;;;;;;27.75;26.25;;;;;-147.17;100.00;49649.19;4908387;28;51690;-59
2022/01/01 06:08:39;;;;;;;;;32.50;28.50;;;;;-147.17;100.00;49651.16;4904993;28;51134;-59
2022/01/01 06:11:04;;;;;;;;;27.75;26.25;;;;;-147.17;100.00;49605.88;4909373;28;51360;-60
2022/01/01 06:13:29;;;;;;;;;28.25;25.25;;;;;-147.17;100.00;49627.53;4903496;28;51029;-59
2022/01/01 06:15:55;;;;;;;;;27.50;26.00;;;;;-147.17;100.00;49639.34;4906182;28;51132;-59
2022/01/01 06:18:20;;;;;;;;;33.00;28.00;;;;;-147.17;100.00;49674.75;4901117;28;51155;-59
2022/01/01 06:20:46;;;;;;;;;25.75;24.75;;;;;-147.17;100.00;49653.13;4903816;28;51374;-59
2022/01/01 06:23:12;;;;;;;;;25.00;24.75;;;;;-147.17;100.00;49682.63;4900556;28;51392;-59
2022/01/01 06:25:38;;;;;;;;;20.00;18.75;;;;;-147.17;100.00;49655.09;4903283;28;51899;-59
2022/01/01 06:28:04;;;;;;;;;36.25;28.50;;;;;-147.17;100.00;49639.34;4906406;28;51203;-60
2022/01/01 06:30:33;;;;;;;;;23.25;22.75;;;;;-147.17;100.00;49633.44;4906230;28;51279;-59
2022/01/01 06:33:13;;;;;;;;;27.25;25.75;;;;;-147.17;100.00;49649.19;4902657;28;51141;-59
2022/01/01 06:35:39;;;;;;;;;25.25;23.50;;;;;-147.17;100.00;49674.75;4901009;28;51395;-59
2022/01/01 06:38:05;;;;;;;;;24.75;23.75;;;;;-147.17;100.00;49643.28;4903924;28;50963;-59
2022/01/01 06:40:30;;;;;;;;;20.50;20.50;;;;;-147.17;100.00;49678.69;4901919;28;51060;-59
2022/01/01 06:42:56;;;;;;;;;23.25;21.75;;;;;-147.17;100.00;49664.91;4904757;28;51365;-59
2022/01/01 06:45:21;;;;;;;;;24.50;23.00;;;;;-147.17;100.00;49670.81;4907397;28;51626;-59
2022/01/01 06:47:46;;;;;;;;;30.00;26.75;;;;;-147.17;100.00;49674.75;4907414;28;51022;-59
2022/01/01 06:50:12;;;;;;;;;30.50;26.00;;;;;-147.17;100.00;49684.59;4902893;28;51299;-60
2022/01/01 06:52:44;;;;;;;;;22.75;22.00;;;;;-147.17;100.00;49668.84;4909551;28;51441;-59
2022/01/01 06:55:11;;;;;;;;;18.00;17.75;;;;;-147.17;100.00;49706.25;4906161;28;51870;-59
2022/01/01 06:57:36;;;;;;;;;23.00;22.75;;;;;-147.17;100.00;49664.91;4907608;28;51045;-60
2022/01/01 07:00:03;;;;;;;;;28.50;26.50;;;;;-147.17;100.00;49660.97;4906187;28;51167;-59
2022/01/01 07:02:29;;;;;;;;;26.25;24.50;;;;;-147.17;100.00;49653.13;4907144;28;51156;-60
2022/01/01 07:04:54;;;;;;;;;20.25;20.25;;;;;-147.17;100.00;49647.22;4906134;28;51822;-59
2022/01/01 07:07:19;;;;;;;;;23.75;22.25;;;;;-147.17;100.00;49682.63;4902856;28;51190;-60
2022/01/01 07:09:45;;;;;;;;;24.25;22.50;;;;;-147.17;100.00;49627.53;4904209;28;52231;-59
2022/01/01 07:12:10;;;;;;;;;24.50;24.50;;;;;-147.17;100.00;49653.13;4901113;28;51461;-59
2022/01/01 07:14:36;;;;;;;;;22.25;21.00;;;;;-147.17;100.00;49662.94;4903735;28;51923;-59
2022/01/01 07:17:01;;;;;;;;;27.00;26.25;;;;;-147.17;100.00;49676.72;4903786;28;51143;-59
2022/01/01 07:19:26;;;;;;;;;19.75;19.75;;;;;-147.17;100.00;49653.13;4900283;28;51001;-59
2022/01/01 07:21:55;;;;;;;;;25.75;24.00;;;;;-147.17;100.00;49627.53;4882786;28;51479;-59
2022/01/01 07:24:21;;;;;;;;;21.00;19.50;;;;;-147.17;100.00;49657.06;4903757;28;52212;-60
2022/01/01 07:26:46;;;;;;;;;20.25;18.25;;;;;-147.17;100.00;49694.44;4901504;28;51078;-59
2022/01/01 07:29:11;;;;;;;;;21.25;21.25;;;;;-147.17;100.00;49670.81;4905404;28;51090;-59
2022/01/01 07:31:37;;;;;;;;;25.50;23.50;;;;;-147.17;100.00;49653.13;4905089;28;52074;-59
2022/01/01 07:34:02;;;;;;;;;19.00;18.50;;;;;-147.17;100.00;49686.56;4906118;28;51005;-59
2022/01/01 07:36:28;;;;;;;;;20.75;18.50;;;;;-147.17;100.00;49682.63;4905026;28;51126;-59
2022/01/01 07:38:53;;;;;;;;;18.75;18.75;;;;;-147.17;100.00;49666.88;4906774;28;51181;-59
2022/01/01 07:41:18;;;;;;;;;19.00;17.50;;;;;-147.17;100.00;49670.81;4904490;28;51892;-59
2022/01/01 07:43:44;;;;;;;;;18.75;18.00;;;;;-147.17;100.00;49686.56;4906233;28;51998;-59
2022/01/01 07:46:09;;;;;;;;;18.00;17.00;;;;;-147.17;100.00;49714.13;4902698;28;51124;-59
2022/01/01 07:48:35;;;;;;;;;23.00;23.00;;;;;-147.17;100.00;49698.38;4901051;28;51307;-60
2022/01/01 07:51:00;;;;;;;;;23.50;23.50;;;;;-147.17;100.00;49670.81;4903133;28;51208;-59
2022/01/01 07:53:25;;;;;;;;;20.25;18.75;;;;;-147.17;100.00;49698.38;4902624;28;51517;-60
2022/01/01 07:55:51;;;;;;;;;23.00;21.50;;;;;-147.17;100.00;49702.31;4909584;28;52050;-59
2022/01/01 07:58:16;;;;;;;;;24.25;22.75;;;;;-147.17;100.00;49710.19;4907622;28;51170;-59
2022/01/01 08:00:41;;;;;;;;;28.50;24.00;;;;;-147.17;100.00;49710.19;4906655;28;51357;-59
2022/01/01 08:03:10;;;;;;;;;27.25;25.25;;;;;-147.17;100.00;49680.66;4906995;28;51169;-59
2022/01/01 08:05:35;;;;;;;;;22.50;22.50;;;;;-147.17;100.00;49722.00;4909715;28;51135;-60
2022/01/01 08:08:00;;;;;;;;;24.00;22.00;;;;;-147.17;100.00;49686.56;4907148;28;51616;-59
2022/01/01 08:10:26;;;;;;;;;21.50;19.00;;;;;-147.17;100.00;49674.75;4903658;28;51023;-60
2022/01/01 08:12:51;;;;;;;;;21.50;19.50;;;;;-147.17;100.00;49729.88;4908913;28;51873;-60
2022/01/01 08:15:17;;;;;;;;;23.50;21.25;;;;;-147.17;100.00;49682.63;4905682;28;51158;-60
2022/01/01 08:17:42;;;;;;;;;17.50;17.25;;;;;-147.17;100.00;49688.53;4906958;28;51103;-60
2022/01/01 08:20:08;;;;;;;;;16.75;16.75;;;;;-147.17;100.00;49720.03;4905493;28;51156;-60
2022/01/01 08:22:34;;;;;;;;;23.50;20.25;;;;;-147.17;100.00;49714.13;4906966;28;51081;-60
2022/01/01 08:25:00;;;;;;;;;19.25;18.50;;;;;-147.17;100.00;49710.19;4908420;28;51119;-61
2022/01/01 08:27:26;;;;;;;;;20.25;20.00;;;;;-147.17;100.00;49696.41;4906143;28;51633;-60
2022/01/01 08:29:51;;;;;;;;;20.75;20.75;;;;;-147.17;100.00;49676.72;4904998;28;51382;-60
2022/01/01 08:32:17;;;;;;;;;22.00;19.75;;;;;-147.17;100.00;49668.84;4905742;28;52750;-60
2022/01/01 08:34:42;;;;;;;;;19.00;18.00;;;;;-147.17;100.00;49714.13;4903282;28;51000;-60
2022/01/01 08:37:08;;;;;;;;;18.50;18.50;;;;;-147.17;100.00;49745.63;4903889;28;51133;-60
2022/01/01 08:39:33;;;;;;;;;21.00;21.00;;;;;-147.17;100.00;49698.38;4905972;28;50989;-61
2022/01/01 08:41:59;;;;;;;;;21.00;21.00;;;;;-147.17;100.00;49753.50;4906822;28;51777;-60
2022/01/01 08:44:25;;;;;;;;;19.00;17.75;;;;;-147.17;100.00;49722.00;4910250;28;51133;-61
2022/01/01 08:46:51;;;;;;;;;22.50;20.75;;;;;-147.17;100.00;49688.53;4901102;28;50958;-61
2022/01/01 08:49:16;;;;;;;;;21.50;21.50;;;;;-147.17;100.00;49718.06;4923640;28;51209;-62
2022/01/01 08:51:43;;;;;;;;;20.25;18.25;;;;;-147.17;100.00;49700.34;4906285;28;51685;-61
2022/01/01 08:54:11;;;;;;;;;20.50;19.00;;;;;-147.17;100.00;49718.06;4916663;28;51018;-63
2022/01/01 08:56:37;;;;;;;;;19.25;18.00;;;;;-147.17;100.00;49722.00;4922067;28;51338;-63
2022/01/01 08:59:02;;;;;;;;;23.25;20.25;;;;;-147.17;100.00;49753.50;4912769;28;51302;-62
2022/01/01 09:01:28;;;;;;;;;19.75;19.00;;;;;-147.17;100.00;49722.00;4924565;28;54047;-60
2022/01/01 09:03:54;;;;;;;;;23.00;20.00;;;;;-147.17;100.00;49704.28;4920918;28;51129;-60
2022/01/01 09:06:19;;;;;;;;;20.25;19.00;;;;;-147.17;100.00;49698.38;4905527;28;51361;-60
2022/01/01 09:08:45;;;;;;;;;18.00;17.50;;;;;-147.17;100.00;49714.13;4904138;28;51128;-60
2022/01/01 09:11:12;;;;;;;;;22.75;21.00;;;;;-147.17;100.00;49712.16;4905925;28;51201;-59
2022/01/01 09:13:43;;;;;;;;;17.00;16.25;;;;;-147.17;100.00;49680.66;4910536;28;51143;-60
2022/01/01 09:16:14;;;;;;;;;21.25;19.50;;;;;-147.17;100.00;49718.06;4911737;28;51010;-61
2022/01/01 09:18:40;;;;;;;;;21.25;18.00;;;;;-147.17;100.00;49745.63;4908586;28;51264;-60
2022/01/01 09:21:06;;;;;;;;;18.25;18.00;;;;;-147.17;100.00;49757.44;4907120;28;51095;-60
2022/01/01 09:23:32;;;;;;;;;18.00;17.50;;;;;-147.17;100.00;49700.34;4906098;28;51237;-60
2022/01/01 09:26:00;;;;;;;;;20.75;19.75;;;;;-147.17;100.00;49745.63;4911644;28;51205;-61
2022/01/01 09:28:26;;;;;;;;;21.25;21.25;;;;;-147.17;100.00;49765.31;4911443;28;51243;-60
2022/01/01 09:30:51;;;;;;;;;17.75;15.25;;;;;-147.17;100.00;49727.91;4909890;28;51327;-60
2022/01/01 09:33:16;;;;;;;;;19.25;19.00;;;;;-147.17;100.00;49759.41;4910260;28;51176;-62
2022/01/01 09:35:42;;;;;;;;;19.75;18.50;;;;;-147.17;100.00;49792.84;4905287;28;51184;-61
2022/01/01 09:38:07;;;;;;;;;14.50;14.00;;;;;-147.17;100.00;49751.53;4902843;28;51294;-60
2022/01/01 09:40:33;;;;;;;;;18.25;18.00;;;;;-147.17;100.00;49759.41;4914797;28;51824;-60
2022/01/01 09:42:59;;;;;;;;;16.50;15.00;;;;;-147.17;100.00;49741.69;4901361;28;51149;-61
2022/01/01 09:45:25;;;;;;;;;23.00;20.25;;;;;-147.17;100.00;49777.13;4906272;28;51229;-61
2022/01/01 09:47:50;;;;;;;;;15.50;15.00;;;;;-147.17;100.00;49759.41;4899228;28;51310;-60
2022/01/01 09:50:16;;;;;;;;;18.50;18.00;;;;;-147.17;100.00;49745.63;4900609;28;51827;-60
2022/01/01 09:52:42;;;;;;;;;20.75;17.50;;;;;-147.17;100.00;49753.50;4916282;28;51103;-60
2022/01/01 09:55:09;;;;;;;;;18.00;17.25;;;;;-147.17;100.00;49751.53;4899600;28;51185;-60
2022/01/01 09:57:34;;;;;;;;;18.00;18.00;;;;;-147.17;100.00;49745.63;4924467;28;51272;-60
2022/01/01 10:00:00;;;;;;;;;17.50;17.50;;;;;-147.17;100.00;49727.91;4911935;28;51318;-60
2022/01/01 10:02:25;;;;;;;;;18.00;16.75;;;;;-147.17;100.00;49769.25;4900245;28;51413;-59
2022/01/01 10:04:54;;;;;;;;;13.25;12.25;;;;;-147.17;100.00;49741.69;4902992;28;51164;-60
2022/01/01 10:07:28;;;;;;;;;18.75;17.50;;;;;-147.17;100.00;49800.72;4900589;28;51085;-60
2022/01/01 10:09:53;;;;;;;;;19.50;19.50;;;;;-147.17;100.00;49771.22;4908734;28;52830;-60
2022/01/01 10:12:19;;;;;;;;;16.75;15.50;;;;;-147.17;100.00;49771.22;4908590;28;51085;-60
2022/01/01 10:14:46;;;;;;;;;19.50;19.25;;;;;-147.17;100.00;49775.16;4896234;28;51256;-60
2022/01/01 10:17:15;;;;;;;;;19.50;18.00;;;;;-147.17;100.00;49779.09;4900527;28;51323;-58
2022/01/01 10:19:41;;;;;;;;;19.00;18.00;;;;;-147.17;100.00;49781.06;4904795;28;51838;-62
2022/01/01 10:22:11;;;;;;;;;18.00;17.75;;;;;-147.17;100.00;49747.59;4899923;28;50942;-59
2022/01/01 10:30:05;;;;;;;;;18.00;16.50;;;;;-147.17;100.00;49781.06;4906786;28;52833;-60
2022/01/01 10:32:30;;;;;;;;;16.00;15.50;;;;;-147.17;100.00;49765.31;4903740;28;51170;-58
2022/01/01 10:34:56;;;;;;;;;18.00;16.50;;;;;-147.17;100.00;49784.97;4911653;28;51609;-58
2022/01/01 10:37:28;;;;;;;;;17.25;14.25;;;;;-147.17;100.00;49763.34;4903272;28;51337;-58
2022/01/01 10:39:54;;;;;;;;;16.25;16.00;;;;;-147.17;100.00;49771.22;4902471;28;51780;-59
2022/01/01 10:42:21;;;;;;;;;16.25;15.25;;;;;-147.17;100.00;49786.94;4897207;28;51534;-59
2022/01/01 10:44:49;;;;;;;;;15.25;13.25;;;;;-147.17;100.00;49781.06;4902414;28;50992;-59
2022/01/01 10:47:20;;;;;;;;;16.50;15.50;;;;;-147.17;100.00;49788.91;4904986;28;51080;-59
2022/01/01 10:52:15;;;;;;;;;18.00;17.75;;;;;-147.17;100.00;49784.97;4896293;28;51098;-59
2022/01/01 10:54:56;;;;;;;;;19.00;18.00;;;;;-147.17;100.00;49761.38;4896283;28;50961;-60
2022/01/01 10:57:29;;;;;;;;;10.25;9.25;;;;;-147.17;100.00;49761.38;4909809;28;50953;-59
2022/01/01 11:00:22;;;;;;;;;17.00;16.00;;;;;-147.17;100.00;49784.97;4914618;28;52911;-59
2022/01/01 11:02:52;;;;;;;;;18.00;17.00;;;;;-147.17;100.00;49781.06;4913071;28;51198;-59